Time;durP1;ratioP1;P1;durP2;ratioP2;P2;SDS_P1;SDS_P2;PMS_P1;PMS_P2;Temp;Humidity;BMP_temperature;BMP_pressure;BME280_temperature;BME280_humidity;BME280_pressure;Samples;Min_cycle;Max_cycle;Signal;HPM_P1;HPM_P2
2021/12/23 00:02:08;;;;;;;1.00;0.52;;;;;;;8.95;100.00;99707.84;4913995;29;20187;-73
2021/12/23 00:04:36;;;;;;;0.70;0.38;;;;;;;8.94;100.00;99706.13;4916811;29;20060;-72
2021/12/23 00:07:15;;;;;;;;;;;;;;;;;;;;;
2021/12/23 00:12:32;;;;;;;1.42;0.60;;;;;;;8.93;100.00;99695.78;4918472;29;20056;-73
2021/12/23 00:15:02;;;;;;;1.25;0.80;;;;;;;8.93;100.00;99694.09;4917832;29;20509;-72
2021/12/23 00:17:54;;;;;;;1.13;0.68;;;;;;;8.93;100.00;99696.66;4917711;29;20063;-72
2021/12/23 00:23:28;;;;;;;2.03;0.47;;;;;;;8.91;100.00;99687.13;4907393;29;20063;-71
2021/12/23 00:26:02;;;;;;;0.90;0.70;;;;;;;8.94;100.00;99682.91;4918552;29;20070;-71
2021/12/23 00:28:33;;;;;;;0.60;0.60;;;;;;;8.95;100.00;99681.19;4918748;29;20045;-72
2021/12/23 00:31:02;;;;;;;2.15;0.70;;;;;;;8.93;100.00;99681.19;4918642;29;20238;-72
2021/12/23 00:33:33;;;;;;;2.13;0.60;;;;;;;8.90;100.00;99673.38;4918008;29;20052;-72
2021/12/23 00:36:11;;;;;;;1.10;0.50;;;;;;;8.94;100.00;99677.75;4917456;28;20052;-72
2021/12/23 00:38:44;;;;;;;3.13;0.55;;;;;;;8.95;100.00;99671.75;4917447;29;20078;-72
2021/12/23 00:41:13;;;;;;;4.82;1.00;;;;;;;8.92;100.00;99666.53;4917236;29;20067;-72
2021/12/23 00:43:49;;;;;;;0.95;0.60;;;;;;;8.94;100.00;99672.59;4916090;29;20051;-70
2021/12/23 00:46:18;;;;;;;1.05;0.70;;;;;;;8.94;100.00;99674.31;4916820;29;20544;-72
2021/12/23 00:48:46;;;;;;;0.70;0.70;;;;;;;8.90;100.00;99663.06;4916433;29;20104;-71
2021/12/23 00:51:15;;;;;;;0.85;0.55;;;;;;;8.88;100.00;99654.41;4916773;29;20056;-71
2021/12/23 00:53:45;;;;;;;0.63;0.40;;;;;;;8.86;100.00;99663.81;4916645;29;20058;-69
2021/12/23 00:56:13;;;;;;;0.68;0.45;;;;;;;8.79;100.00;99660.25;4916287;29;20103;-70
2021/12/23 00:58:43;;;;;;;0.57;0.40;;;;;;;8.78;100.00;99655.09;4917195;29;20056;-70
2021/12/23 01:01:12;;;;;;;0.50;0.40;;;;;;;8.79;100.00;99660.25;4916591;29;20044;-69
2021/12/23 01:03:41;;;;;;;0.75;0.20;;;;;;;8.77;100.00;99655.91;4915847;29;20818;-70
2021/12/23 01:06:14;;;;;;;0.30;0.30;;;;;;;8.75;100.00;99647.28;4916427;29;20056;-70
2021/12/23 01:08:43;;;;;;;1.88;0.77;;;;;;;8.71;100.00;99641.22;4916741;29;20062;-70
2021/12/23 01:11:11;;;;;;;0.30;0.20;;;;;;;8.71;100.00;99640.34;4915954;29;20052;-68
2021/12/23 01:13:47;;;;;;;0.95;0.20;;;;;;;8.60;100.00;99637.56;4915339;29;20115;-70
2021/12/23 01:16:37;;;;;;;0.45;0.28;;;;;;;8.62;100.00;99645.31;4916517;29;20055;-72
2021/12/23 01:19:11;;;;;;;0.50;0.30;;;;;;;8.63;100.00;99657.38;4916584;29;20080;-70
2021/12/23 01:21:40;;;;;;;0.40;0.30;;;;;;;8.62;100.00;99648.78;4915846;29;20052;-71
2021/12/23 01:24:10;;;;;;;0.82;0.38;;;;;;;8.60;100.00;99642.72;4916012;29;20087;-71
2021/12/23 01:26:39;;;;;;;1.15;0.20;;;;;;;8.63;100.00;99641.91;4916891;29;20044;-71
2021/12/23 01:29:10;;;;;;;0.10;0.10;;;;;;;8.65;100.00;99640.22;4916189;29;20048;-70
2021/12/23 01:31:44;;;;;;;0.73;0.50;;;;;;;8.66;100.00;99631.63;4915818;29;20051;-71
2021/12/23 01:34:13;;;;;;;1.23;0.40;;;;;;;8.69;100.00;99631.72;4916049;29;20388;-70
2021/12/23 01:36:41;;;;;;;0.20;0.20;;;;;;;8.70;100.00;99629.13;4918299;28;20068;-71
2021/12/23 01:39:13;;;;;;;1.75;0.63;;;;;;;8.67;100.00;99617.91;4915729;29;20048;-71
2021/12/23 01:41:44;;;;;;;0.80;0.20;;;;;;;8.69;100.00;99616.22;4915348;29;20259;-71
2021/12/23 01:44:13;;;;;;;0.30;0.30;;;;;;;8.70;100.00;99608.50;4915579;29;20052;-69
2021/12/23 01:46:43;;;;;;;0.47;0.30;;;;;;;8.72;100.00;99605.97;4915736;29;20048;-72
2021/12/23 01:49:12;;;;;;;0.63;0.30;;;;;;;8.71;100.00;99604.25;4916196;29;20139;-70
2021/12/23 01:51:40;;;;;;;0.82;0.30;;;;;;;8.69;100.00;99609.38;4915223;29;20052;-71
2021/12/23 01:54:09;;;;;;;0.08;0.05;;;;;;;8.66;100.00;99605.84;4914929;29;20498;-73
2021/12/23 01:56:37;;;;;;;0.10;0.10;;;;;;;8.68;100.00;99594.75;4915761;29;20051;-72
2021/12/23 01:59:06;;;;;;;1.08;0.30;;;;;;;8.70;100.00;99602.50;4916893;29;20052;-72
2021/12/23 02:01:35;;;;;;;0.98;0.10;;;;;;;8.68;100.00;99599.00;4915257;29;20052;-72
2021/12/23 02:04:06;;;;;;;0.73;0.30;;;;;;;8.62;100.00;99593.75;4915083;29;20052;-73
2021/12/23 02:06:34;;;;;;;1.27;0.15;;;;;;;8.62;100.00;99604.94;4915399;29;20112;-69
2021/12/23 02:09:03;;;;;;;0.13;0.13;;;;;;;8.61;100.00;99590.28;4916533;29;20051;-71
2021/12/23 02:11:32;;;;;;;0.65;0.32;;;;;;;8.63;100.00;99587.75;4916171;29;20044;-70
2021/12/23 02:14:00;;;;;;;1.08;0.40;;;;;;;8.66;100.00;99580.94;4916166;29;20123;-71
2021/12/23 02:16:29;;;;;;;0.75;0.10;;;;;;;8.69;100.00;99574.97;4916837;29;20056;-71
2021/12/23 02:18:57;;;;;;;0.40;0.10;;;;;;;8.73;100.00;99574.19;4915438;29;20067;-70
2021/12/23 02:21:37;;;;;;;1.23;0.30;;;;;;;8.77;100.00;99575.97;4914542;29;20059;-72
2021/12/23 02:24:12;;;;;;;0.20;0.20;;;;;;;8.78;100.00;99564.81;4914971;29;20064;-70
2021/12/23 02:26:41;;;;;;;0.60;0.50;;;;;;;8.78;100.00;99557.09;4914160;29;20483;-70
2021/12/23 02:29:10;;;;;;;0.10;0.10;;;;;;;8.79;100.00;99559.66;4914785;29;20567;-70
2021/12/23 02:31:39;;;;;;;0.70;0.50;;;;;;;8.79;100.00;99556.22;4914890;29;20055;-70
2021/12/23 02:34:08;;;;;;;0.52;0.30;;;;;;;8.80;100.00;99553.69;4914305;29;20711;-70
2021/12/23 02:36:55;;;;;;;1.25;0.20;;;;;;;8.81;100.00;99539.94;4916126;28;20060;-70
2021/12/23 02:39:26;;;;;;;0.75;0.50;;;;;;;8.81;100.00;99547.66;4914824;29;20051;-70
2021/12/23 02:41:56;;;;;;;3.40;0.30;;;;;;;8.82;100.00;99540.81;4914366;29;20573;-70
2021/12/23 02:44:24;;;;;;;0.28;0.20;;;;;;;8.78;100.00;99523.56;4914352;29;20052;-71
2021/12/23 02:46:53;;;;;;;0.20;0.20;;;;;;;8.80;100.00;99527.91;4914212;29;20096;-72
2021/12/23 02:49:22;;;;;;;0.22;0.20;;;;;;;8.80;100.00;99527.91;4914693;29;20048;-72
2021/12/23 02:51:57;;;;;;;0.77;0.30;;;;;;;8.83;100.00;99531.38;4913686;29;20103;-70
2021/12/23 02:54:25;;;;;;;0.65;0.32;;;;;;;8.84;100.00;99523.63;4914365;29;20062;-72
2021/12/23 02:56:54;;;;;;;2.15;0.50;;;;;;;8.86;100.00;99527.13;4914270;29;20124;-73
2021/12/23 02:59:22;;;;;;;0.90;0.60;;;;;;;8.85;100.00;99535.72;4914502;29;20068;-71
2021/12/23 03:01:51;;;;;;;0.38;0.30;;;;;;;8.87;100.00;99528.00;4913649;29;20490;-71
2021/12/23 03:04:19;;;;;;;0.57;0.35;;;;;;;8.89;100.00;99536.66;4913650;29;20103;-73
2021/12/23 03:06:48;;;;;;;0.50;0.30;;;;;;;8.89;100.00;99526.31;4913957;29;20079;-72
2021/12/23 03:09:18;;;;;;;2.53;0.47;;;;;;;8.87;100.00;99528.88;4914664;29;20083;-71
2021/12/23 03:11:46;;;;;;;1.33;0.57;;;;;;;8.88;100.00;99530.59;4913757;29;20326;-73
2021/12/23 03:14:15;;;;;;;1.67;0.63;;;;;;;8.88;100.00;99515.13;4913676;29;20048;-72
2021/12/23 03:16:44;;;;;;;0.98;0.55;;;;;;;8.87;100.00;99517.69;4914405;29;20048;-72
2021/12/23 03:19:12;;;;;;;1.38;0.93;;;;;;;8.81;100.00;99521.03;4913758;29;20055;-71
2021/12/23 03:21:44;;;;;;;1.58;0.70;;;;;;;8.83;100.00;99521.91;4914027;29;20075;-70
2021/12/23 03:24:15;;;;;;;2.60;0.90;;;;;;;8.84;100.00;99504.72;4913816;29;20422;-70
2021/12/23 03:26:45;;;;;;;1.30;0.70;;;;;;;8.87;100.00;99507.38;4913941;29;20490;-70
2021/12/23 03:29:14;;;;;;;0.85;0.35;;;;;;;8.81;100.00;99513.28;4914349;29;20902;-70
2021/12/23 03:31:43;;;;;;;0.40;0.30;;;;;;;8.79;100.00;99510.66;4913405;29;20063;-74
2021/12/23 03:34:11;;;;;;;0.60;0.20;;;;;;;8.80;100.00;99516.72;4913531;29;20064;-70
2021/12/23 03:36:42;;;;;;;0.40;0.20;;;;;;;8.82;100.00;99504.72;4915655;28;20091;-71
2021/12/23 03:39:10;;;;;;;0.40;0.20;;;;;;;8.80;100.00;99507.25;4918011;29;20051;-71
2021/12/23 03:41:39;;;;;;;2.92;0.20;;;;;;;8.80;100.00;99507.25;4919431;29;20474;-72
2021/12/23 03:44:09;;;;;;;0.10;0.10;;;;;;;8.83;100.00;99505.56;4916794;29;20048;-72
2021/12/23 03:46:38;;;;;;;0.50;0.35;;;;;;;8.81;100.00;99505.53;4918293;29;20048;-72
2021/12/23 03:49:10;;;;;;;0.10;0.10;;;;;;;8.74;100.00;99502.00;4918302;29;20063;-74
2021/12/23 03:51:40;;;;;;;0.32;0.32;;;;;;;8.77;100.00;99498.59;4918275;29;20673;-74
2021/12/23 03:54:08;;;;;;;0.30;0.20;;;;;;;8.75;100.00;99502.84;4917607;29;20078;-73
2021/12/23 03:56:37;;;;;;;3.75;0.20;;;;;;;8.70;100.00;99494.19;4918299;29;20087;-72
2021/12/23 03:59:11;;;;;;;0.43;0.43;;;;;;;8.71;100.00;99490.78;4918809;29;20495;-73
2021/12/23 04:01:41;;;;;;;0.50;0.38;;;;;;;8.70;100.00;99478.69;4918358;29;20060;-74
2021/12/23 04:04:10;;;;;;;0.20;0.20;;;;;;;8.68;100.00;99486.44;4918165;29;20048;-73
2021/12/23 04:06:39;;;;;;;0.10;0.10;;;;;;;8.69;100.00;99485.59;4918094;29;20056;-74
2021/12/23 04:09:07;;;;;;;0.22;0.20;;;;;;;8.72;100.00;99488.19;4918359;29;20117;-74
2021/12/23 04:11:36;;;;;;;0.20;0.20;;;;;;;8.74;100.00;99480.50;4917688;29;20502;-72
2021/12/23 04:14:04;;;;;;;0.10;0.10;;;;;;;8.74;100.00;99485.66;4917562;29;20052;-74
2021/12/23 04:16:33;;;;;;;1.05;0.15;;;;;;;8.71;100.00;99498.50;4917080;29;20052;-74
2021/12/23 04:19:06;;;;;;;0.30;0.20;;;;;;;8.69;100.00;99487.28;4918167;29;20210;-74
2021/12/23 04:21:35;;;;;;;0.52;0.22;;;;;;;8.64;100.00;99488.94;4917430;29;20060;-73
2021/12/23 04:24:07;;;;;;;0.28;0.28;;;;;;;8.60;100.00;99473.41;4917607;29;20048;-76
2021/12/23 04:26:35;;;;;;;0.10;0.10;;;;;;;8.63;100.00;99475.16;4917930;29;20763;-72
2021/12/23 04:29:05;;;;;;;0.20;0.20;;;;;;;8.61;100.00;99479.41;4917321;29;20096;-74
2021/12/23 04:31:33;;;;;;;0.47;0.20;;;;;;;8.65;100.00;99480.34;4917293;29;20585;-74
2021/12/23 04:34:05;;;;;;;0.30;0.20;;;;;;;8.65;100.00;99480.34;4916705;29;20087;-74
2021/12/23 04:36:33;;;;;;;0.13;0.10;;;;;;;8.63;100.00;99470.00;4919781;28;20088;-72
2021/12/23 04:39:02;;;;;;;2.08;0.13;;;;;;;8.60;100.00;99473.41;4904648;29;20111;-74
2021/12/23 04:41:31;;;;;;;0.10;0.10;;;;;;;8.62;100.00;99470.84;4917247;29;20105;-74
2021/12/23 04:44:00;;;;;;;0.10;0.10;;;;;;;8.58;100.00;99469.91;4916710;29;20131;-73
2021/12/23 04:46:29;;;;;;;0.10;0.10;;;;;;;8.60;100.00;99463.09;4917716;29;20048;-73
2021/12/23 04:48:58;;;;;;;0.28;0.20;;;;;;;8.55;100.00;99454.41;4916340;29;20056;-75
2021/12/23 04:51:28;;;;;;;0.10;0.10;;;;;;;8.54;100.00;99451.78;4917307;29;20056;-75
2021/12/23 04:53:56;;;;;;;0.32;0.20;;;;;;;8.56;100.00;99442.38;4917317;29;20044;-76
2021/12/23 04:56:25;;;;;;;0.50;0.50;;;;;;;8.55;100.00;99448.41;4904329;29;20052;-74
2021/12/23 04:58:54;;;;;;;0.10;0.10;;;;;;;8.49;100.00;99459.44;4917186;29;20502;-74
2021/12/23 05:01:29;;;;;;;0.17;0.13;;;;;;;8.48;100.00;99444.84;4916496;29;20048;-71
2021/12/23 05:03:58;;;;;;;0.45;0.10;;;;;;;8.50;100.00;99432.00;4916803;29;20063;-74
2021/12/23 05:06:28;;;;;;;0.15;0.10;;;;;;;8.53;100.00;99435.47;4916547;29;20063;-74
2021/12/23 05:08:57;;;;;;;0.45;0.15;;;;;;;8.56;100.00;99432.06;4904369;29;20056;-75
2021/12/23 05:11:25;;;;;;;0.52;0.20;;;;;;;8.54;100.00;99426.00;4916803;29;20059;-75
2021/12/23 05:13:54;;;;;;;0.10;0.10;;;;;;;8.58;100.00;99428.66;4916602;29;20052;-74
2021/12/23 05:16:22;;;;;;;0.20;0.20;;;;;;;8.58;100.00;99427.81;4916692;29;20048;-76
2021/12/23 05:18:51;;;;;;;0.10;0.10;;;;;;;8.58;100.00;99420.94;4916493;29;20527;-72
2021/12/23 05:21:19;;;;;;;0.20;0.20;;;;;;;8.59;100.00;99416.66;4917112;29;20052;-74
2021/12/23 05:23:49;;;;;;;0.20;0.20;;;;;;;8.59;100.00;99420.09;4916271;29;20104;-73
2021/12/23 05:26:18;;;;;;;0.40;0.30;;;;;;;8.59;100.00;99414.09;4905206;29;20056;-76
2021/12/23 05:28:46;;;;;;;0.30;0.15;;;;;;;8.57;100.00;99415.78;4917029;29;20112;-76
2021/12/23 05:31:15;;;;;;;0.10;0.10;;;;;;;8.49;100.00;99413.03;4917249;29;20564;-73
2021/12/23 05:33:43;;;;;;;0.22;0.15;;;;;;;8.54;100.00;99405.38;4916126;29;20054;-75
2021/12/23 05:36:12;;;;;;;0.35;0.20;;;;;;;8.53;100.00;99417.41;4918810;28;20066;-72
2021/12/23 05:38:40;;;;;;;0.82;0.20;;;;;;;8.53;100.00;99412.25;4916253;29;20574;-73
2021/12/23 05:41:11;;;;;;;0.20;0.20;;;;;;;8.50;100.00;99419.97;4916720;29;20048;-73
2021/12/23 05:43:39;;;;;;;0.32;0.20;;;;;;;8.50;100.00;99414.81;4915922;29;20088;-75
2021/12/23 05:46:10;;;;;;;0.22;0.22;;;;;;;8.55;100.00;99409.72;4916539;29;20123;-76
2021/12/23 05:48:38;;;;;;;0.25;0.25;;;;;;;8.60;100.00;99411.50;4916384;29;20056;-75
2021/12/23 05:51:07;;;;;;;0.68;0.30;;;;;;;8.60;100.00;99411.50;4916307;29;20056;-72
2021/12/23 05:53:35;;;;;;;1.27;0.20;;;;;;;8.60;100.00;99421.81;4915118;29;20075;-75
2021/12/23 05:56:04;;;;;;;0.20;0.20;;;;;;;8.60;100.00;99414.09;4915975;29;20062;-74
2021/12/23 05:58:37;;;;;;;0.10;0.10;;;;;;;8.66;100.00;99405.59;4916401;29;20132;-76
2021/12/23 06:01:06;;;;;;;0.32;0.32;;;;;;;8.70;100.00;99419.41;4915468;29;20052;-74
2021/12/23 06:03:34;;;;;;;0.47;0.30;;;;;;;8.69;100.00;99415.09;4915482;29;20052;-75
2021/12/23 06:06:05;;;;;;;0.30;0.22;;;;;;;8.69;100.00;99425.41;4916096;29;20151;-76
2021/12/23 06:08:35;;;;;;;0.40;0.20;;;;;;;8.72;100.00;99430.59;4913639;29;20578;-76
2021/12/23 06:11:04;;;;;;;0.30;0.28;;;;;;;8.70;100.00;99433.16;4916009;29;20107;-75
2021/12/23 06:13:34;;;;;;;1.10;0.30;;;;;;;8.70;100.00;99411.66;4915697;29;20779;-75
2021/12/23 06:16:02;;;;;;;0.47;0.22;;;;;;;8.67;100.00;99409.03;4915451;29;20100;-77
2021/12/23 06:18:31;;;;;;;0.30;0.20;;;;;;;8.63;100.00;99417.56;4915520;29;20103;-76
2021/12/23 06:21:13;;;;;;;0.10;0.10;;;;;;;8.64;100.00;99411.59;4915637;29;20081;-74
2021/12/23 06:23:42;;;;;;;1.13;0.32;;;;;;;8.69;100.00;99395.31;4915080;29;20052;-76
2021/12/23 06:26:10;;;;;;;0.63;0.28;;;;;;;8.68;100.00;99410.75;4915465;29;20064;-77
2021/12/23 06:28:43;;;;;;;0.30;0.30;;;;;;;8.63;100.00;99386.63;4915505;29;20055;-78
2021/12/23 06:31:11;;;;;;;0.40;0.20;;;;;;;8.69;100.00;99394.47;4915542;29;20048;-78
2021/12/23 06:33:40;;;;;;;0.90;0.30;;;;;;;8.71;100.00;99395.34;4914382;29;20083;-77
2021/12/23 06:36:09;;;;;;;1.02;0.20;;;;;;;8.69;100.00;99384.16;4917148;28;20063;-74
2021/12/23 06:38:45;;;;;;;0.25;0.22;;;;;;;8.70;100.00;99380.72;4915083;29;20133;-76
2021/12/23 06:41:16;;;;;;;0.20;0.20;;;;;;;8.70;100.00;99376.41;4915690;29;20127;-73
2021/12/23 06:43:47;;;;;;;0.55;0.20;;;;;;;8.71;100.00;99372.16;4914063;29;20052;-74
2021/12/23 06:46:21;;;;;;;0.93;0.30;;;;;;;8.71;100.00;99374.72;4915583;29;20529;-73
2021/12/23 06:48:49;;;;;;;0.32;0.10;;;;;;;8.72;100.00;99381.59;4915202;29;20521;-75
2021/12/23 06:51:17;;;;;;;0.55;0.47;;;;;;;8.74;100.00;99369.59;4915216;29;20080;-75
2021/12/23 06:53:46;;;;;;;0.40;0.20;;;;;;;8.75;100.00;99379.06;4915022;29;20056;-75
2021/12/23 06:56:17;;;;;;;0.68;0.32;;;;;;;8.70;100.00;99372.97;4914926;29;20087;-78
2021/12/23 06:58:48;;;;;;;0.63;0.30;;;;;;;8.74;100.00;99373.03;4914797;29;20067;-72
2021/12/23 07:01:18;;;;;;;0.10;0.10;;;;;;;8.75;100.00;99379.94;4914764;29;20066;-77
2021/12/23 07:04:04;;;;;;;0.20;0.20;;;;;;;8.80;100.00;99392.91;4914475;29;20059;-74
2021/12/23 07:06:34;;;;;;;1.55;0.20;;;;;;;8.76;100.00;99388.56;4914807;29;20523;-74
2021/12/23 07:09:04;;;;;;;1.08;0.25;;;;;;;8.82;100.00;99391.22;4915574;29;20082;-75
2021/12/23 07:11:33;;;;;;;1.17;0.32;;;;;;;8.86;100.00;99408.47;4914814;29;20053;-75
2021/12/23 07:14:03;;;;;;;0.30;0.20;;;;;;;8.90;100.00;99374.13;4902042;29;20125;-75
2021/12/23 07:16:32;;;;;;;1.00;0.38;;;;;;;8.98;100.00;99389.75;4916368;29;20119;-76
2021/12/23 07:19:00;;;;;;;0.43;0.20;;;;;;;8.99;100.00;99392.31;4915051;29;20135;-75
2021/12/23 07:21:29;;;;;;;1.15;0.30;;;;;;;9.03;100.00;99380.34;4914895;29;20124;-74
2021/12/23 07:23:57;;;;;;;0.77;0.30;;;;;;;9.08;100.00;99390.72;4914135;29;20052;-73
2021/12/23 07:26:26;;;;;;;2.08;0.73;;;;;;;9.02;100.00;99384.63;4914639;29;20052;-73
2021/12/23 07:28:54;;;;;;;1.15;0.40;;;;;;;8.99;100.00;99369.09;4914989;29;20044;-73
2021/12/23 07:31:24;;;;;;;2.05;0.57;;;;;;;9.04;100.00;99360.56;4915185;29;20549;-73
2021/12/23 07:33:53;;;;;;;1.75;0.30;;;;;;;9.06;100.00;99358.88;4914456;29;20104;-74
2021/12/23 07:36:24;;;;;;;1.63;0.20;;;;;;;9.12;100.00;99369.28;4916628;28;20097;-73
2021/12/23 07:38:52;;;;;;;0.47;0.30;;;;;;;9.14;100.00;99352.06;4914779;29;20139;-73
2021/12/23 07:41:21;;;;;;;1.27;0.22;;;;;;;9.13;100.00;99337.47;4914784;29;20502;-73
2021/12/23 07:44:02;;;;;;;0.45;0.35;;;;;;;9.12;100.00;99338.31;4914486;29;20060;-73
2021/12/23 07:46:35;;;;;;;0.82;0.38;;;;;;;9.14;100.00;99341.75;4914494;29;20063;-73
2021/12/23 07:49:04;;;;;;;;;;;;;;;9.14;100.00;99352.06;4915306;29;20059;-72
2021/12/23 07:51:32;;;;;;;0.50;0.38;;;;;;;9.08;100.00;99352.03;4914561;29;19927;-73
2021/12/23 07:54:00;;;;;;;1.58;0.30;;;;;;;9.10;100.00;99368.38;4913106;29;20096;-73
2021/12/23 07:56:29;;;;;;;0.85;0.20;;;;;;;9.08;100.00;99346.84;4914592;29;20104;-73
2021/12/23 07:59:00;;;;;;;1.52;0.30;;;;;;;9.09;100.00;99331.38;4914171;29;20052;-73
2021/12/23 08:01:28;;;;;;;0.70;0.20;;;;;;;9.09;100.00;99339.13;4913866;29;20120;-73
2021/12/23 08:03:58;;;;;;;2.75;0.40;;;;;;;9.09;100.00;99344.28;4913651;29;20102;-73
2021/12/23 08:06:27;;;;;;;0.28;0.20;;;;;;;9.06;100.00;99343.38;4914130;29;20139;-74
2021/12/23 08:08:58;;;;;;;1.90;0.17;;;;;;;9.07;100.00;99339.94;4914192;29;20156;-73
2021/12/23 08:11:27;;;;;;;0.63;0.30;;;;;;;9.04;100.00;99339.91;4914290;29;20054;-74
2021/12/23 08:13:55;;;;;;;0.55;0.35;;;;;;;9.08;100.00;99341.69;4910317;29;20494;-73
2021/12/23 08:16:24;;;;;;;0.45;0.30;;;;;;;9.14;100.00;99362.41;4914146;29;20422;-74
2021/12/23 08:18:52;;;;;;;2.13;0.47;;;;;;;9.18;100.00;99370.19;4913999;29;20112;-74
2021/12/23 08:21:28;;;;;;;1.85;0.40;;;;;;;9.23;100.00;99370.25;4913894;29;20052;-75
2021/12/23 08:23:56;;;;;;;0.43;0.20;;;;;;;9.24;100.00;99343.63;4912486;29;20490;-74
2021/12/23 08:26:28;;;;;;;1.77;0.30;;;;;;;9.22;100.00;99365.97;4917182;29;20051;-74
2021/12/23 08:28:57;;;;;;;0.60;0.32;;;;;;;9.26;100.00;99390.97;4917073;29;20044;-73
2021/12/23 08:31:28;;;;;;;1.65;0.20;;;;;;;9.28;100.00;99375.47;4917321;29;20052;-73
2021/12/23 08:33:57;;;;;;;0.28;0.28;;;;;;;9.30;100.00;99382.41;4916909;29;20122;-75
2021/12/23 08:36:27;;;;;;;0.95;0.30;;;;;;;9.32;100.00;99385.88;4919260;28;20482;-74
2021/12/23 08:38:55;;;;;;;1.83;0.63;;;;;;;9.34;100.00;99376.41;4930252;29;20052;-73
2021/12/23 08:41:25;;;;;;;1.35;0.40;;;;;;;9.35;100.00;99375.59;4917614;29;20052;-74
2021/12/23 08:43:53;;;;;;;2.08;0.20;;;;;;;9.32;100.00;99375.56;4916358;29;20056;-73
2021/12/23 08:46:22;;;;;;;0.10;0.10;;;;;;;9.34;100.00;99371.25;4917430;29;20083;-74
2021/12/23 08:48:50;;;;;;;0.10;0.10;;;;;;;9.33;100.00;99366.97;4917158;29;20051;-74
2021/12/23 08:51:19;;;;;;;2.50;0.38;;;;;;;9.34;100.00;99366.09;4917330;29;20087;-74
2021/12/23 08:53:49;;;;;;;0.20;0.20;;;;;;;9.34;100.00;99357.50;4916744;29;20135;-73
2021/12/23 08:56:18;;;;;;;0.45;0.45;;;;;;;9.34;100.00;99357.50;4917351;29;20459;-74
2021/12/23 08:58:46;;;;;;;0.28;0.20;;;;;;;9.31;100.00;99349.72;4916653;29;20688;-73
2021/12/23 09:01:15;;;;;;;1.65;0.20;;;;;;;9.31;100.00;99355.75;4916458;29;20052;-73
2021/12/23 09:03:43;;;;;;;3.63;0.32;;;;;;;9.31;100.00;99360.06;4916625;29;20055;-74
2021/12/23 09:06:12;;;;;;;1.60;0.10;;;;;;;9.27;100.00;99346.22;4917160;29;20052;-73
2021/12/23 09:08:40;;;;;;;0.55;0.30;;;;;;;9.25;100.00;99345.34;4917054;29;20553;-71
2021/12/23 09:11:11;;;;;;;0.65;0.20;;;;;;;9.22;100.00;99341.00;4918600;29;20052;-74
2021/12/23 09:13:39;;;;;;;0.77;0.30;;;;;;;9.23;100.00;99352.19;4916526;29;20056;-73
2021/12/23 09:16:07;;;;;;;0.30;0.20;;;;;;;9.20;100.00;99347.00;4916856;29;20056;-73
2021/12/23 09:18:36;;;;;;;0.30;0.20;;;;;;;9.18;100.00;99354.72;4916534;29;20578;-74
2021/12/23 09:21:05;;;;;;;0.28;0.17;;;;;;;9.19;100.00;99356.47;4916624;29;20048;-73
2021/12/23 09:23:33;;;;;;;1.08;0.40;;;;;;;9.18;100.00;99349.56;4917062;29;20533;-73
2021/12/23 09:26:08;;;;;;;2.05;0.25;;;;;;;9.20;100.00;99350.44;4917115;29;20084;-73
2021/12/23 09:28:53;;;;;;;1.02;0.20;;;;;;;9.18;100.00;99346.97;4917359;29;20048;-73
2021/12/23 09:34:07;;;;;;;1.45;0.30;;;;;;;9.23;100.00;99341.88;4916812;29;20451;-74
2021/12/23 09:36:36;;;;;;;0.10;0.10;;;;;;;9.25;100.00;99340.16;4917988;28;20054;-73
2021/12/23 09:39:07;;;;;;;0.65;0.30;;;;;;;9.26;100.00;99338.47;4915563;29;20049;-74
2021/12/23 09:41:37;;;;;;;0.73;0.22;;;;;;;9.24;100.00;99343.63;4916125;29;20048;-73
2021/12/23 09:44:09;;;;;;;0.10;0.10;;;;;;;9.23;100.00;99342.75;4916116;29;20080;-74
2021/12/23 09:46:38;;;;;;;0.68;0.10;;;;;;;9.20;100.00;99337.53;4916074;29;20047;-74
2021/12/23 09:49:08;;;;;;;0.43;0.13;;;;;;;9.15;100.00;99341.78;4916381;29;20521;-75
2021/12/23 09:51:37;;;;;;;0.15;0.15;;;;;;;9.15;100.00;99336.63;4914473;29;20048;-74
2021/12/23 09:54:09;;;;;;;0.75;0.20;;;;;;;9.16;100.00;99333.22;4915648;29;20048;-75
2021/12/23 09:56:37;;;;;;;0.55;0.30;;;;;;;9.17;100.00;99331.50;4916060;29;20104;-75
2021/12/23 09:59:09;;;;;;;0.57;0.20;;;;;;;9.16;100.00;99332.31;4916207;29;20079;-75
2021/12/23 10:01:37;;;;;;;5.82;0.32;;;;;;;9.14;100.00;99337.47;4915834;29;20563;-75
2021/12/23 10:04:08;;;;;;;0.45;0.25;;;;;;;9.11;100.00;99333.97;4915631;29;20087;-75
2021/12/23 10:06:37;;;;;;;0.10;0.10;;;;;;;9.11;100.00;99341.72;4915831;29;20060;-75
2021/12/23 10:09:05;;;;;;;0.35;0.25;;;;;;;9.11;100.00;99347.75;4915896;29;20116;-74
2021/12/23 10:11:51;;;;;;;2.28;0.30;;;;;;;9.11;100.00;99341.72;4915814;29;20127;-74
2021/12/23 10:31:37;;;;;;;0.17;0.10;;;;;;;8.65;100.00;99377.19;4857077;29;20049;-74
2021/12/23 10:37:15;;;;;;;0.73;0.10;;;;;;;8.57;100.00;99387.41;4890858;28;20120;-73
2021/12/23 10:39:45;;;;;;;0.10;0.10;;;;;;;8.59;100.00;99389.16;4896160;29;20052;-74
2021/12/23 10:42:16;;;;;;;0.13;0.13;;;;;;;8.57;100.00;99390.00;4895829;29;20153;-74
2021/12/23 10:44:50;;;;;;;0.08;0.08;;;;;;;8.56;100.00;99398.56;4896370;29;20048;-74
2021/12/23 10:47:39;;;;;;;0.00;0.00;;;;;;;8.55;100.00;99392.53;4906378;29;20091;-73
2021/12/23 10:50:20;;;;;;;0.10;0.10;;;;;;;8.53;100.00;99389.06;4883849;29;20051;-72
2021/12/23 10:52:53;;;;;;;0.75;0.13;;;;;;;8.53;100.00;99399.38;4895654;29;20055;-73
2021/12/23 10:58:15;;;;;;;0.10;0.10;;;;;;;8.45;100.00;99393.22;4896055;29;20434;-73
2021/12/23 11:00:49;;;;;;;0.00;0.00;;;;;;;8.42;100.00;99400.03;4895857;29;20487;-74
2021/12/23 11:03:25;;;;;;;0.10;0.10;;;;;;;8.41;100.00;99403.44;4895509;29;20080;-73
2021/12/23 11:06:03;;;;;;;0.45;0.20;;;;;;;8.36;100.00;99405.91;4896248;29;20052;-74
2021/12/23 11:08:45;;;;;;;0.00;0.00;;;;;;;8.35;100.00;99399.03;4895836;29;20506;-73
2021/12/23 11:11:46;;;;;;;0.10;0.10;;;;;;;8.34;100.00;99416.22;4896436;29;20490;-74
2021/12/23 11:37:14;;;;;;;0.00;0.00;;;;;;;8.08;100.00;99423.47;4870968;28;20546;-73
2021/12/23 11:39:54;;;;;;;0.20;0.20;;;;;;;8.11;100.00;99420.13;4896252;29;20059;-74
2021/12/23 11:42:32;;;;;;;0.03;0.03;;;;;;;8.09;100.00;99422.66;4896285;29;20052;-73
2021/12/23 11:45:00;;;;;;;0.00;0.00;;;;;;;8.11;100.00;99423.56;4897063;29;20071;-74
2021/12/23 11:47:29;;;;;;;0.00;0.00;;;;;;;8.11;100.00;99418.41;4896098;29;20064;-73
2021/12/23 11:49:59;;;;;;;0.10;0.10;;;;;;;8.14;100.00;99421.03;4896943;29;20052;-73
2021/12/23 11:52:29;;;;;;;0.00;0.00;;;;;;;8.17;100.00;99428.78;4895450;29;20083;-72
2021/12/23 11:54:58;;;;;;;0.00;0.00;;;;;;;8.16;100.00;99403.03;4897440;29;20091;-74
2021/12/23 11:57:31;;;;;;;0.47;0.10;;;;;;;8.21;100.00;99414.28;4896110;29;20053;-73
2021/12/23 12:00:13;;;;;;;1.75;0.10;;;;;;;8.23;100.00;99422.91;4900320;29;20045;-73
2021/12/23 12:02:42;;;;;;;0.00;0.00;;;;;;;8.22;100.00;99420.28;4899400;29;20143;-74
2021/12/23 12:05:17;;;;;;;0.03;0.03;;;;;;;8.21;100.00;99418.56;4900087;29;20056;-74
2021/12/23 12:07:47;;;;;;;3.10;0.10;;;;;;;8.20;100.00;99435.75;4910399;29;20052;-74
2021/12/23 12:10:23;;;;;;;0.05;0.05;;;;;;;8.21;100.00;99428.88;4899963;29;20632;-73
2021/12/23 12:13:01;;;;;;;0.73;0.10;;;;;;;8.21;100.00;99441.75;4899996;29;20662;-73
2021/12/23 12:15:47;;;;;;;0.75;0.28;;;;;;;8.18;100.00;99446.00;4899819;29;20189;-74
2021/12/23 12:18:18;;;;;;;0.03;0.03;;;;;;;8.16;100.00;99442.53;4899961;29;20057;-73
2021/12/23 12:20:50;;;;;;;0.17;0.10;;;;;;;8.16;100.00;99445.13;4903848;29;20044;-73
2021/12/23 12:23:24;;;;;;;0.00;0.00;;;;;;;8.14;100.00;99446.78;4899994;29;20108;-73
2021/12/23 12:26:01;;;;;;;0.13;0.13;;;;;;;8.15;100.00;99456.28;4898805;29;20064;-74
2021/12/23 12:28:46;;;;;;;0.25;0.10;;;;;;;8.14;100.00;99448.50;4900342;29;20057;-75
2021/12/23 12:31:18;;;;;;;0.88;0.32;;;;;;;8.13;100.00;99447.66;4897994;29;20472;-74
2021/12/23 12:33:58;;;;;;;0.00;0.00;;;;;;;8.11;100.00;99446.75;4899795;29;20561;-74
2021/12/23 12:36:27;;;;;;;0.10;0.10;;;;;;;8.03;100.00;99456.03;4907908;29;20051;-74
2021/12/23 12:39:14;;;;;;;0.15;0.10;;;;;;;8.01;100.00;99459.41;4902126;28;20060;-74
2021/12/23 12:41:45;;;;;;;0.00;0.00;;;;;;;7.99;100.00;99464.53;4899338;29;20112;-74
2021/12/23 12:44:21;;;;;;;0.00;0.00;;;;;;;7.97;100.00;99473.94;4898420;29;20076;-75
2021/12/23 12:47:01;;;;;;;1.27;0.20;;;;;;;7.91;100.00;99469.53;4900489;29;20487;-75